עמוד ראשי
תמונות לווין תחזית 10-יוםאקליםתחזית ים סופות טרופיות ברקים שדות תעופהשאלות נפוצות עלון אודות
מזג אוויר : אירופה אפריקה אמריקה הצפונית אמריקה הדרומית אסיה אוסטרליה-אוקיאניה אחרים
שפות איש קשר

סלוניקי, יוון

נמל התעופה הבינלאומי סלוניקי מקדוניה

קו רוחב: 40-31N, קו אורך: 022-58E, גובה: 8מטר


METAR: LGTS 282320Z 35012KT 9999 DZ FEW035 BKN070 OVC180 16/07 Q1012 NOSIG
TAF: LGTS 282300Z 2900/2924 33015KT 9999 SCT030 TEMPO 2900/2906 33020G30KT BECMG 2912/2914 20010KT BECMG 2918/2920 VRB03KT FEW030

זמן: 02:52 (23:52 UTC)

תצפית מזג אוויר נוכחית

הדו"ח נערך לפני 32דקות, בשעה 23:20 UTC
רוח 12קשר מכיוון צפון
טמפרטורת 16 צלסיוס
לחות 55%
לחץ 1012 hPa
ראות 10 קילומטר או יותר
מעט עננים בגובה 3500רגל
עננים בינוניים בגובה 7000רגל
מעונן בגובה 18000רגל
טפטוף

שנה יחידות

תחזית

הדו"ח נערך לפני 52דקות, בשעה 23:00 UTC
תחזית בתוקף מ 29 ב 00 UTC עד 29 ב 24 UTC
רוח 15קשר מכיוון צפון/צפון-מערב
ראות 10 קילומטר או יותר
עננים פזורים בגובה 3000רגל
זמנית מ -
29 ב 00 UTC עד 29 ב 06 UTC
רוח 20קשר מכיוון צפון/צפון-מערב עם משבים עד 30קשר
יעשה מ
29 ב 12 UTC עד 29 ב 14 UTC
רוח 10קשר מכיוון דרום/דרום-מערב
יעשה מ
29 ב 18 UTC עד 29 ב 20 UTC
רוח 3קשר עם כיוונים משתנים
מעט עננים בגובה 3000רגל
המידע באתר זה מותנה של תניית פטור
מזג אוויר : אירופה אפריקה אמריקה הצפונית אמריקה הדרומית אסיה אוסטרליה-אוקיאניה אחרים
תמונות לווין תחזית 10-יוםאקליםתחזית ים סופות טרופיות ברקים שדות תעופהשאלות נפוצות שפות איש קשר עלון אודות